Vremea acum in Ineu - Romania

Vrei sa afli care e starea vremii acum in Arad - Romania? Dorim sa iti furnizam starea vremii pentru Arad - Romania. Starea vremii Arad - Romania pentru astazi.

Vremea acum in Ineu

Temperatura: 24 °C

Se simte ca: 26.3 °C
Innorat: 0 %
Precipitatii: 0 %
Presiune atmosferica: 1021 hPa
Umiditate: 89%
Vizibilitate: 10 km
Vantul bate din W cu 6.1 km/h

Evolutia vremii in Ineu pe ore

Ora: 22:00
Parțial noros
Temperatura: 25.3°C
Sansa de precipitatii: 0%
Ora Descriere Temp Se simte Precipitatii Umiditate Vant
00:00Parțial noros19.6°19.6°0%84%E 5 KM/H
01:00Parțial noros19.3°19.3°0%83%E 5.4 KM/H
02:00Parțial noros18.9°18.9°0%82%E 5.4 KM/H
03:00Parțial noros18.6°18.6°0%83%ESE 6.1 KM/H
04:00Parțial noros18.3°18.3°0%83%ESE 6.5 KM/H
05:00Parțial noros18°18°0%84%ESE 7.2 KM/H
06:00Parțial noros19.9°19.9°0%79%ESE 6.5 KM/H
07:00Parțial noros21.8°21.8°0%73%ESE 6.1 KM/H
08:00Parțial noros23.7°25.4°0%68%ESE 5.4 KM/H
09:00Parțial noros26°27.8°0%62%SSW 4.7 KM/H
10:00Parțial noros28.3°30.1°0%56%W 3.6 KM/H
11:00Parțial noros30.6°32.5°0%50%N 2.9 KM/H
12:00Parțial noros30.4°32.2°0%51%NNW 5.8 KM/H
13:00Parțial noros30.2°32°0%51%NNW 8.3 KM/H
14:00Parțial noros30°31.7°0%51%NNW 11.2 KM/H
15:00Parțial noros29.8°31.6°0%53%NNW 10.8 KM/H
16:00Parțial noros29.5°31.4°0%55%NNW 10.8 KM/H
17:00Parțial noros29.3°31.3°0%57%NNW 10.4 KM/H
18:00Parțial noros28.6°31°0%64%NNW 8.6 KM/H
19:00Parțial noros28°30.6°0%71%NNW 6.5 KM/H
20:00Parțial noros27.3°30.3°0%78%NNW 4.7 KM/H
21:00Soare26.3°29°0%80%WSW 4 KM/H
22:00Parțial noros25.3°27.6°0%83%SE 2.9 KM/H
23:00Senin24.3°26.3°0%85%NE 2.2 KM/H